Ash Grove, Nebraska
Current Conditions -  °F | °C
As of 9:35 PM on Monday 22 Dec 2014 (Local Time) from KHDE Reporting Station
Overcast Overcast  
Wind Chill: 28°   Ceiling: 3400
Heat Index: 37°   Visibility: 10mi
Dew Point: 32°   Wind: 13mph
Humidity: 83%   Direction: 300°WNW
Pressure: 29.57"   Gusts: NA
Location:  40.1734°N, 98.8989°W
Report Text: KHDE 230335Z AUTO 30011KT 10SM SCT022 BKN034 OVC100 03/00 A2957 RMK AO2 T00251002
Loading
Personal Weather Stations






























Interactive Weather Map New forecast layout! Learn more

10-Day Weather Forecast

Advertisements
Track Severe Weather on mobile